sensor_id;sensor_type;location;lat;lon;timestamp;temperature;humidity
10889;DHT22;5497;51.388;6.780;2022-08-21T00:02:13;16.90;99.90
10889;DHT22;5497;51.388;6.780;2022-08-21T00:04:41;16.90;99.90
10889;DHT22;5497;51.388;6.780;2022-08-21T00:07:08;16.90;99.90
10889;DHT22;5497;51.388;6.780;2022-08-21T00:09:35;16.90;99.90
10889;DHT22;5497;51.388;6.780;2022-08-21T00:12:02;16.90;99.90
10889;DHT22;5497;51.388;6.780;2022-08-21T00:14:28;16.90;99.90
10889;DHT22;5497;51.388;6.780;2022-08-21T00:16:55;16.90;99.90
10889;DHT22;5497;51.388;6.780;2022-08-21T00:19:22;16.90;99.90
10889;DHT22;5497;51.388;6.780;2022-08-21T00:21:51;16.90;99.90
10889;DHT22;5497;51.388;6.780;2022-08-21T00:24:18;17.00;99.90
10889;DHT22;5497;51.388;6.780;2022-08-21T00:26:45;17.00;99.90
10889;DHT22;5497;51.388;6.780;2022-08-21T00:29:13;17.00;99.90
10889;DHT22;5497;51.388;6.780;2022-08-21T00:31:39;17.00;99.90
10889;DHT22;5497;51.388;6.780;2022-08-21T00:34:06;17.00;99.90
10889;DHT22;5497;51.388;6.780;2022-08-21T00:36:33;17.00;99.90
10889;DHT22;5497;51.388;6.780;2022-08-21T00:39:02;17.00;99.90
10889;DHT22;5497;51.388;6.780;2022-08-21T00:41:29;17.00;99.90
10889;DHT22;5497;51.388;6.780;2022-08-21T00:43:56;16.90;99.90
10889;DHT22;5497;51.388;6.780;2022-08-21T00:46:23;16.70;99.90
10889;DHT22;5497;51.388;6.780;2022-08-21T00:48:50;16.60;99.90
10889;DHT22;5497;51.388;6.780;2022-08-21T00:51:17;16.50;99.90
10889;DHT22;5497;51.388;6.780;2022-08-21T00:53:47;16.40;99.90
10889;DHT22;5497;51.388;6.780;2022-08-21T00:56:16;16.30;99.90
10889;DHT22;5497;51.388;6.780;2022-08-21T00:58:43;16.20;99.90
10889;DHT22;5497;51.388;6.780;2022-08-21T01:01:10;16.20;99.90
10889;DHT22;5497;51.388;6.780;2022-08-21T01:03:36;16.10;99.90
10889;DHT22;5497;51.388;6.780;2022-08-21T01:06:04;16.00;99.90
10889;DHT22;5497;51.388;6.780;2022-08-21T01:08:32;15.90;99.90
10889;DHT22;5497;51.388;6.780;2022-08-21T01:10:59;15.80;99.90
10889;DHT22;5497;51.388;6.780;2022-08-21T01:13:29;15.70;99.90
10889;DHT22;5497;51.388;6.780;2022-08-21T01:15:56;15.60;99.90
10889;DHT22;5497;51.388;6.780;2022-08-21T01:18:24;15.60;99.90
10889;DHT22;5497;51.388;6.780;2022-08-21T01:20:59;15.50;99.90
10889;DHT22;5497;51.388;6.780;2022-08-21T01:23:26;15.40;99.90
10889;DHT22;5497;51.388;6.780;2022-08-21T01:25:53;15.30;99.90
10889;DHT22;5497;51.388;6.780;2022-08-21T01:28:19;15.30;99.90
10889;DHT22;5497;51.388;6.780;2022-08-21T01:30:48;15.20;99.90
10889;DHT22;5497;51.388;6.780;2022-08-21T01:33:16;15.20;99.90
10889;DHT22;5497;51.388;6.780;2022-08-21T01:35:44;15.10;99.90
10889;DHT22;5497;51.388;6.780;2022-08-21T01:38:12;14.60;99.90
10889;DHT22;5497;51.388;6.780;2022-08-21T01:40:39;15.00;99.90
10889;DHT22;5497;51.388;6.780;2022-08-21T01:43:05;15.00;99.90
10889;DHT22;5497;51.388;6.780;2022-08-21T01:45:32;15.00;99.90
10889;DHT22;5497;51.388;6.780;2022-08-21T01:47:59;14.90;99.90
10889;DHT22;5497;51.388;6.780;2022-08-21T01:50:25;14.90;99.90
10889;DHT22;5497;51.388;6.780;2022-08-21T01:52:52;14.90;99.90
10889;DHT22;5497;51.388;6.780;2022-08-21T01:55:21;14.90;99.90
10889;DHT22;5497;51.388;6.780;2022-08-21T01:57:48;14.80;99.90
10889;DHT22;5497;51.388;6.780;2022-08-21T02:00:16;14.80;99.90
10889;DHT22;5497;51.388;6.780;2022-08-21T02:02:43;14.80;99.90
10889;DHT22;5497;51.388;6.780;2022-08-21T02:05:11;14.80;99.90
10889;DHT22;5497;51.388;6.780;2022-08-21T02:07:38;14.80;99.90
10889;DHT22;5497;51.388;6.780;2022-08-21T02:10:05;14.80;99.90
10889;DHT22;5497;51.388;6.780;2022-08-21T02:12:34;14.70;99.90
10889;DHT22;5497;51.388;6.780;2022-08-21T02:15:01;14.70;99.90
10889;DHT22;5497;51.388;6.780;2022-08-21T02:17:36;14.70;99.90
10889;DHT22;5497;51.388;6.780;2022-08-21T02:20:03;14.80;99.90
10889;DHT22;5497;51.388;6.780;2022-08-21T02:22:30;14.80;99.90
10889;DHT22;5497;51.388;6.780;2022-08-21T02:24:56;14.90;99.90
10889;DHT22;5497;51.388;6.780;2022-08-21T02:27:23;14.90;99.90
10889;DHT22;5497;51.388;6.780;2022-08-21T02:29:51;15.00;99.90
10889;DHT22;5497;51.388;6.780;2022-08-21T02:32:18;15.10;99.90
10889;DHT22;5497;51.388;6.780;2022-08-21T02:34:46;15.10;99.90
10889;DHT22;5497;51.388;6.780;2022-08-21T02:37:14;15.10;99.90
10889;DHT22;5497;51.388;6.780;2022-08-21T02:39:40;15.10;99.90
10889;DHT22;5497;51.388;6.780;2022-08-21T02:42:07;15.10;99.90
10889;DHT22;5497;51.388;6.780;2022-08-21T02:44:34;15.10;99.90
10889;DHT22;5497;51.388;6.780;2022-08-21T02:47:02;16.20;99.90
10889;DHT22;5497;51.388;6.780;2022-08-21T02:49:29;16.60;99.90
10889;DHT22;5497;51.388;6.780;2022-08-21T02:51:55;14.80;99.90
10889;DHT22;5497;51.388;6.780;2022-08-21T02:54:23;14.80;99.90
10889;DHT22;5497;51.388;6.780;2022-08-21T02:56:50;14.80;99.90
10889;DHT22;5497;51.388;6.780;2022-08-21T02:59:16;14.70;99.90
10889;DHT22;5497;51.388;6.780;2022-08-21T03:01:43;14.60;99.90
10889;DHT22;5497;51.388;6.780;2022-08-21T03:04:11;14.60;99.90
10889;DHT22;5497;51.388;6.780;2022-08-21T03:06:38;14.50;99.90
10889;DHT22;5497;51.388;6.780;2022-08-21T03:09:04;14.50;99.90
10889;DHT22;5497;51.388;6.780;2022-08-21T03:11:31;14.50;99.90
10889;DHT22;5497;51.388;6.780;2022-08-21T03:13:58;14.40;99.90
10889;DHT22;5497;51.388;6.780;2022-08-21T03:16:25;14.40;99.90
10889;DHT22;5497;51.388;6.780;2022-08-21T03:18:51;14.40;99.90
10889;DHT22;5497;51.388;6.780;2022-08-21T03:21:19;14.30;99.90
10889;DHT22;5497;51.388;6.780;2022-08-21T03:23:46;14.30;99.90
10889;DHT22;5497;51.388;6.780;2022-08-21T03:26:13;14.30;99.90
10889;DHT22;5497;51.388;6.780;2022-08-21T03:28:40;14.20;99.90
10889;DHT22;5497;51.388;6.780;2022-08-21T03:31:06;14.20;99.90
10889;DHT22;5497;51.388;6.780;2022-08-21T03:33:34;14.20;99.90
10889;DHT22;5497;51.388;6.780;2022-08-21T03:36:01;14.20;99.90
10889;DHT22;5497;51.388;6.780;2022-08-21T03:38:30;14.10;99.90
10889;DHT22;5497;51.388;6.780;2022-08-21T03:40:58;14.10;99.90
10889;DHT22;5497;51.388;6.780;2022-08-21T03:43:25;14.10;99.90
10889;DHT22;5497;51.388;6.780;2022-08-21T03:45:52;14.10;99.90
10889;DHT22;5497;51.388;6.780;2022-08-21T03:48:19;14.10;99.90
10889;DHT22;5497;51.388;6.780;2022-08-21T03:50:46;14.70;99.90
10889;DHT22;5497;51.388;6.780;2022-08-21T03:53:14;14.10;99.90
10889;DHT22;5497;51.388;6.780;2022-08-21T03:55:43;14.10;99.90
10889;DHT22;5497;51.388;6.780;2022-08-21T03:58:10;14.10;99.90
10889;DHT22;5497;51.388;6.780;2022-08-21T04:00:36;14.00;99.90
10889;DHT22;5497;51.388;6.780;2022-08-21T04:03:03;14.00;99.90
10889;DHT22;5497;51.388;6.780;2022-08-21T04:05:31;14.00;99.90
10889;DHT22;5497;51.388;6.780;2022-08-21T04:07:59;14.00;99.90
10889;DHT22;5497;51.388;6.780;2022-08-21T04:10:26;14.00;99.90
10889;DHT22;5497;51.388;6.780;2022-08-21T04:12:54;14.00;99.90
10889;DHT22;5497;51.388;6.780;2022-08-21T04:15:22;14.00;99.90
10889;DHT22;5497;51.388;6.780;2022-08-21T04:17:49;14.00;99.90
10889;DHT22;5497;51.388;6.780;2022-08-21T04:20:15;14.10;99.90
10889;DHT22;5497;51.388;6.780;2022-08-21T04:22:42;14.00;99.90
10889;DHT22;5497;51.388;6.780;2022-08-21T04:25:10;13.90;99.90
10889;DHT22;5497;51.388;6.780;2022-08-21T04:27:37;14.00;99.90
10889;DHT22;5497;51.388;6.780;2022-08-21T04:30:07;14.00;99.90
10889;DHT22;5497;51.388;6.780;2022-08-21T04:32:35;14.00;99.90
10889;DHT22;5497;51.388;6.780;2022-08-21T04:35:03;15.30;99.90
10889;DHT22;5497;51.388;6.780;2022-08-21T04:37:30;14.00;99.90
10889;DHT22;5497;51.388;6.780;2022-08-21T04:39:57;14.00;99.90
10889;DHT22;5497;51.388;6.780;2022-08-21T04:42:24;14.00;99.90
10889;DHT22;5497;51.388;6.780;2022-08-21T04:44:52;14.00;99.90
10889;DHT22;5497;51.388;6.780;2022-08-21T04:47:20;14.00;99.90
10889;DHT22;5497;51.388;6.780;2022-08-21T04:49:47;14.00;99.90
10889;DHT22;5497;51.388;6.780;2022-08-21T04:52:15;14.00;99.90
10889;DHT22;5497;51.388;6.780;2022-08-21T04:54:43;14.00;99.90
10889;DHT22;5497;51.388;6.780;2022-08-21T04:57:11;14.00;99.90
10889;DHT22;5497;51.388;6.780;2022-08-21T04:59:38;14.00;99.90
10889;DHT22;5497;51.388;6.780;2022-08-21T05:02:06;14.10;99.90
10889;DHT22;5497;51.388;6.780;2022-08-21T05:04:36;15.90;99.90
10889;DHT22;5497;51.388;6.780;2022-08-21T05:07:05;14.20;99.90
10889;DHT22;5497;51.388;6.780;2022-08-21T05:09:34;14.20;99.90
10889;DHT22;5497;51.388;6.780;2022-08-21T05:12:01;14.30;99.90
10889;DHT22;5497;51.388;6.780;2022-08-21T05:14:28;14.40;99.90
10889;DHT22;5497;51.388;6.780;2022-08-21T05:16:54;14.50;99.90
10889;DHT22;5497;51.388;6.780;2022-08-21T05:19:21;14.60;99.90
10889;DHT22;5497;51.388;6.780;2022-08-21T05:21:50;14.60;99.90
10889;DHT22;5497;51.388;6.780;2022-08-21T05:24:16;14.80;99.90
10889;DHT22;5497;51.388;6.780;2022-08-21T05:26:43;14.90;99.90
10889;DHT22;5497;51.388;6.780;2022-08-21T05:29:11;15.10;99.90
10889;DHT22;5497;51.388;6.780;2022-08-21T05:31:38;15.20;99.90
10889;DHT22;5497;51.388;6.780;2022-08-21T05:34:04;15.40;99.90
10889;DHT22;5497;51.388;6.780;2022-08-21T05:36:31;15.70;99.90
10889;DHT22;5497;51.388;6.780;2022-08-21T05:38:59;15.70;99.90
10889;DHT22;5497;51.388;6.780;2022-08-21T05:41:27;16.10;99.90
10889;DHT22;5497;51.388;6.780;2022-08-21T05:43:53;17.20;99.90
10889;DHT22;5497;51.388;6.780;2022-08-21T05:46:20;17.80;99.90
10889;DHT22;5497;51.388;6.780;2022-08-21T05:48:47;18.80;99.90
10889;DHT22;5497;51.388;6.780;2022-08-21T05:51:14;20.70;99.90
10889;DHT22;5497;51.388;6.780;2022-08-21T05:53:41;20.80;99.90
10889;DHT22;5497;51.388;6.780;2022-08-21T05:56:10;22.70;99.90
10889;DHT22;5497;51.388;6.780;2022-08-21T05:58:36;22.80;99.90
10889;DHT22;5497;51.388;6.780;2022-08-21T06:01:04;23.80;99.90
10889;DHT22;5497;51.388;6.780;2022-08-21T06:03:32;24.70;99.90
10889;DHT22;5497;51.388;6.780;2022-08-21T06:05:59;25.50;99.90
10889;DHT22;5497;51.388;6.780;2022-08-21T06:08:26;26.20;99.90
10889;DHT22;5497;51.388;6.780;2022-08-21T06:10:54;27.00;99.90
10889;DHT22;5497;51.388;6.780;2022-08-21T06:13:22;27.70;99.90
10889;DHT22;5497;51.388;6.780;2022-08-21T06:15:50;28.40;99.90
10889;DHT22;5497;51.388;6.780;2022-08-21T06:18:17;29.10;99.90
10889;DHT22;5497;51.388;6.780;2022-08-21T06:20:43;29.50;99.90
10889;DHT22;5497;51.388;6.780;2022-08-21T06:23:10;30.00;99.90
10889;DHT22;5497;51.388;6.780;2022-08-21T06:25:37;30.40;99.90
10889;DHT22;5497;51.388;6.780;2022-08-21T06:28:04;30.70;99.90
10889;DHT22;5497;51.388;6.780;2022-08-21T06:30:32;31.10;99.90
10889;DHT22;5497;51.388;6.780;2022-08-21T06:32:59;31.60;99.90
10889;DHT22;5497;51.388;6.780;2022-08-21T06:35:26;31.70;99.90
10889;DHT22;5497;51.388;6.780;2022-08-21T06:37:54;31.80;99.90
10889;DHT22;5497;51.388;6.780;2022-08-21T06:40:21;32.00;99.90
10889;DHT22;5497;51.388;6.780;2022-08-21T06:42:48;32.40;99.90
10889;DHT22;5497;51.388;6.780;2022-08-21T06:45:15;32.70;99.90
10889;DHT22;5497;51.388;6.780;2022-08-21T06:47:43;32.90;99.90
10889;DHT22;5497;51.388;6.780;2022-08-21T06:50:10;33.10;99.90
10889;DHT22;5497;51.388;6.780;2022-08-21T06:52:38;33.30;99.90
10889;DHT22;5497;51.388;6.780;2022-08-21T06:55:05;33.50;99.90
10889;DHT22;5497;51.388;6.780;2022-08-21T06:57:32;33.60;99.80
10889;DHT22;5497;51.388;6.780;2022-08-21T06:59:59;33.60;98.50
10889;DHT22;5497;51.388;6.780;2022-08-21T07:02:26;33.80;98.10
10889;DHT22;5497;51.388;6.780;2022-08-21T07:04:55;34.00;96.90
10889;DHT22;5497;51.388;6.780;2022-08-21T07:07:22;34.00;95.70
10889;DHT22;5497;51.388;6.780;2022-08-21T07:09:48;34.00;94.70
10889;DHT22;5497;51.388;6.780;2022-08-21T07:12:15;34.10;95.50
10889;DHT22;5497;51.388;6.780;2022-08-21T07:14:42;34.10;94.00
10889;DHT22;5497;51.388;6.780;2022-08-21T07:17:09;34.10;93.20
10889;DHT22;5497;51.388;6.780;2022-08-21T07:19:36;34.00;92.60
10889;DHT22;5497;51.388;6.780;2022-08-21T07:22:04;34.00;91.40
10889;DHT22;5497;51.388;6.780;2022-08-21T07:24:32;34.00;91.00
10889;DHT22;5497;51.388;6.780;2022-08-21T07:26:58;34.20;91.10
10889;DHT22;5497;51.388;6.780;2022-08-21T07:29:25;34.40;90.60
10889;DHT22;5497;51.388;6.780;2022-08-21T07:31:52;34.60;89.40
10889;DHT22;5497;51.388;6.780;2022-08-21T07:34:18;34.50;88.50
10889;DHT22;5497;51.388;6.780;2022-08-21T07:36:45;34.50;87.40
10889;DHT22;5497;51.388;6.780;2022-08-21T07:39:13;34.10;85.70
10889;DHT22;5497;51.388;6.780;2022-08-21T07:41:40;33.70;85.90
10889;DHT22;5497;51.388;6.780;2022-08-21T07:44:07;33.20;85.60
10889;DHT22;5497;51.388;6.780;2022-08-21T07:46:33;32.90;85.20
10889;DHT22;5497;51.388;6.780;2022-08-21T07:49:00;32.50;86.10
10889;DHT22;5497;51.388;6.780;2022-08-21T07:51:27;32.40;85.90
10889;DHT22;5497;51.388;6.780;2022-08-21T07:53:55;32.30;86.40
10889;DHT22;5497;51.388;6.780;2022-08-21T07:56:24;32.30;85.30
10889;DHT22;5497;51.388;6.780;2022-08-21T07:58:50;32.40;85.10
10889;DHT22;5497;51.388;6.780;2022-08-21T08:01:17;32.40;85.30
10889;DHT22;5497;51.388;6.780;2022-08-21T08:03:44;32.40;84.60
10889;DHT22;5497;51.388;6.780;2022-08-21T08:06:11;32.30;84.20
10889;DHT22;5497;51.388;6.780;2022-08-21T08:08:39;32.20;83.80
10889;DHT22;5497;51.388;6.780;2022-08-21T08:11:06;32.30;83.10
10889;DHT22;5497;51.388;6.780;2022-08-21T08:13:39;32.30;84.40
10889;DHT22;5497;51.388;6.780;2022-08-21T08:18:39;32.20;79.90
10889;DHT22;5497;51.388;6.780;2022-08-21T08:21:07;32.10;80.90
10889;DHT22;5497;51.388;6.780;2022-08-21T08:23:34;32.10;80.30
10889;DHT22;5497;51.388;6.780;2022-08-21T08:26:01;32.10;79.30
10889;DHT22;5497;51.388;6.780;2022-08-21T08:28:28;32.20;78.50
10889;DHT22;5497;51.388;6.780;2022-08-21T08:30:58;32.10;78.50
10889;DHT22;5497;51.388;6.780;2022-08-21T08:33:25;32.10;79.80
10889;DHT22;5497;51.388;6.780;2022-08-21T08:35:52;32.00;78.40
10889;DHT22;5497;51.388;6.780;2022-08-21T08:38:20;32.10;79.00
10889;DHT22;5497;51.388;6.780;2022-08-21T08:40:48;32.20;78.80
10889;DHT22;5497;51.388;6.780;2022-08-21T08:43:18;32.20;78.30
10889;DHT22;5497;51.388;6.780;2022-08-21T08:45:46;32.20;77.80
10889;DHT22;5497;51.388;6.780;2022-08-21T08:48:17;32.30;76.80
10889;DHT22;5497;51.388;6.780;2022-08-21T08:50:52;32.30;77.40
10889;DHT22;5497;51.388;6.780;2022-08-21T08:53:21;32.30;75.80
10889;DHT22;5497;51.388;6.780;2022-08-21T08:55:50;32.00;74.60
10889;DHT22;5497;51.388;6.780;2022-08-21T08:58:19;31.60;75.80
10889;DHT22;5497;51.388;6.780;2022-08-21T09:00:47;31.30;77.50
10889;DHT22;5497;51.388;6.780;2022-08-21T09:03:16;31.10;77.10
10889;DHT22;5497;51.388;6.780;2022-08-21T09:05:45;29.30;75.80
10889;DHT22;5497;51.388;6.780;2022-08-21T09:08:15;30.50;76.90
10889;DHT22;5497;51.388;6.780;2022-08-21T09:10:46;30.20;77.60
10889;DHT22;5497;51.388;6.780;2022-08-21T09:13:17;30.10;78.20
10889;DHT22;5497;51.388;6.780;2022-08-21T09:15:46;30.10;79.40
10889;DHT22;5497;51.388;6.780;2022-08-21T09:18:23;30.20;79.00
10889;DHT22;5497;51.388;6.780;2022-08-21T09:20:56;30.20;80.00
10889;DHT22;5497;51.388;6.780;2022-08-21T09:23:25;30.10;79.50
10889;DHT22;5497;51.388;6.780;2022-08-21T09:25:56;30.30;80.00
10889;DHT22;5497;51.388;6.780;2022-08-21T09:28:25;30.30;79.00
10889;DHT22;5497;51.388;6.780;2022-08-21T09:30:54;30.20;79.40
10889;DHT22;5497;51.388;6.780;2022-08-21T09:33:22;29.90;79.40
10889;DHT22;5497;51.388;6.780;2022-08-21T09:35:50;29.70;79.70
10889;DHT22;5497;51.388;6.780;2022-08-21T09:38:24;29.50;80.00
10889;DHT22;5497;51.388;6.780;2022-08-21T09:40:55;29.40;81.20
10889;DHT22;5497;51.388;6.780;2022-08-21T09:43:23;29.40;80.20
10889;DHT22;5497;51.388;6.780;2022-08-21T09:46:00;29.10;79.80
10889;DHT22;5497;51.388;6.780;2022-08-21T09:48:29;28.70;78.90
10889;DHT22;5497;51.388;6.780;2022-08-21T09:51:05;28.00;80.10
10889;DHT22;5497;51.388;6.780;2022-08-21T09:53:32;27.30;81.30
10889;DHT22;5497;51.388;6.780;2022-08-21T09:56:02;26.80;83.40
10889;DHT22;5497;51.388;6.780;2022-08-21T09:58:47;26.40;83.90
10889;DHT22;5497;51.388;6.780;2022-08-21T10:01:17;26.10;85.60
10889;DHT22;5497;51.388;6.780;2022-08-21T10:03:46;25.90;85.80
10889;DHT22;5497;51.388;6.780;2022-08-21T10:06:20;25.60;86.90
10889;DHT22;5497;51.388;6.780;2022-08-21T10:08:47;25.60;87.80
10889;DHT22;5497;51.388;6.780;2022-08-21T10:11:15;25.50;88.70
10889;DHT22;5497;51.388;6.780;2022-08-21T10:13:45;25.40;89.30
10889;DHT22;5497;51.388;6.780;2022-08-21T10:16:20;25.30;88.90
10889;DHT22;5497;51.388;6.780;2022-08-21T10:18:55;25.30;89.80
10889;DHT22;5497;51.388;6.780;2022-08-21T10:21:23;25.20;90.10
10889;DHT22;5497;51.388;6.780;2022-08-21T10:23:56;25.20;90.00
10889;DHT22;5497;51.388;6.780;2022-08-21T10:26:28;25.20;89.90
10889;DHT22;5497;51.388;6.780;2022-08-21T10:28:59;25.10;90.50
10889;DHT22;5497;51.388;6.780;2022-08-21T10:31:30;25.30;90.60
10889;DHT22;5497;51.388;6.780;2022-08-21T10:34:04;25.30;90.50
10889;DHT22;5497;51.388;6.780;2022-08-21T10:36:33;25.40;90.40
10889;DHT22;5497;51.388;6.780;2022-08-21T10:39:07;25.40;90.90
10889;DHT22;5497;51.388;6.780;2022-08-21T10:41:44;25.50;90.80
10889;DHT22;5497;51.388;6.780;2022-08-21T10:44:20;25.50;90.70
10889;DHT22;5497;51.388;6.780;2022-08-21T10:46:51;25.60;90.40
10889;DHT22;5497;51.388;6.780;2022-08-21T10:49:24;25.60;90.50
10889;DHT22;5497;51.388;6.780;2022-08-21T10:51:55;25.70;90.60
10889;DHT22;5497;51.388;6.780;2022-08-21T10:54:26;25.80;90.90
10889;DHT22;5497;51.388;6.780;2022-08-21T10:56:59;25.90;90.80
10889;DHT22;5497;51.388;6.780;2022-08-21T10:59:28;26.00;90.50
10889;DHT22;5497;51.388;6.780;2022-08-21T11:01:58;26.00;90.50
10889;DHT22;5497;51.388;6.780;2022-08-21T11:04:30;26.00;90.30
10889;DHT22;5497;51.388;6.780;2022-08-21T11:06:59;26.10;90.40
10889;DHT22;5497;51.388;6.780;2022-08-21T11:09:26;26.20;90.30
10889;DHT22;5497;51.388;6.780;2022-08-21T11:11:54;26.30;90.10
10889;DHT22;5497;51.388;6.780;2022-08-21T11:14:24;26.40;90.20
10889;DHT22;5497;51.388;6.780;2022-08-21T11:16:53;26.70;89.80
10889;DHT22;5497;51.388;6.780;2022-08-21T11:19:25;26.80;89.50
10889;DHT22;5497;51.388;6.780;2022-08-21T11:21:56;26.90;89.20
10889;DHT22;5497;51.388;6.780;2022-08-21T11:24:29;27.10;88.80
10889;DHT22;5497;51.388;6.780;2022-08-21T11:26:58;27.20;88.30
10889;DHT22;5497;51.388;6.780;2022-08-21T11:29:27;27.30;88.50
10889;DHT22;5497;51.388;6.780;2022-08-21T11:31:58;27.50;88.20
10889;DHT22;5497;51.388;6.780;2022-08-21T11:34:33;27.70;86.70
10889;DHT22;5497;51.388;6.780;2022-08-21T11:37:06;27.80;87.40
10889;DHT22;5497;51.388;6.780;2022-08-21T11:39:38;27.90;87.00
10889;DHT22;5497;51.388;6.780;2022-08-21T11:42:11;28.10;87.00
10889;DHT22;5497;51.388;6.780;2022-08-21T11:48:09;28.50;85.90
10889;DHT22;5497;51.388;6.780;2022-08-21T11:50:47;28.60;85.20
10889;DHT22;5497;51.388;6.780;2022-08-21T11:53:19;28.70;84.80
10889;DHT22;5497;51.388;6.780;2022-08-21T11:55:52;28.70;84.60
10889;DHT22;5497;51.388;6.780;2022-08-21T11:58:36;28.80;84.70
10889;DHT22;5497;51.388;6.780;2022-08-21T12:01:06;28.80;84.50
10889;DHT22;5497;51.388;6.780;2022-08-21T12:03:35;28.70;83.50
10889;DHT22;5497;51.388;6.780;2022-08-21T12:06:30;28.70;84.40
10889;DHT22;5497;51.388;6.780;2022-08-21T12:09:08;28.70;84.10
10889;DHT22;5497;51.388;6.780;2022-08-21T12:11:47;28.80;84.10
10889;DHT22;5497;51.388;6.780;2022-08-21T12:14:19;28.90;82.90
10889;DHT22;5497;51.388;6.780;2022-08-21T12:16:50;29.00;83.40
10889;DHT22;5497;51.388;6.780;2022-08-21T12:19:35;29.00;82.80
10889;DHT22;5497;51.388;6.780;2022-08-21T12:22:12;28.80;84.00
10889;DHT22;5497;51.388;6.780;2022-08-21T12:24:49;28.90;83.10
10889;DHT22;5497;51.388;6.780;2022-08-21T12:27:22;28.90;83.40
10889;DHT22;5497;51.388;6.780;2022-08-21T12:29:55;28.90;83.10
10889;DHT22;5497;51.388;6.780;2022-08-21T12:32:54;28.60;82.40
10889;DHT22;5497;51.388;6.780;2022-08-21T12:35:36;28.60;83.40
10889;DHT22;5497;51.388;6.780;2022-08-21T12:38:06;28.40;83.80
10889;DHT22;5497;51.388;6.780;2022-08-21T12:40:39;28.30;83.80
10889;DHT22;5497;51.388;6.780;2022-08-21T12:43:13;28.00;83.60
10889;DHT22;5497;51.388;6.780;2022-08-21T12:45:50;28.00;84.20
10889;DHT22;5497;51.388;6.780;2022-08-21T12:48:22;28.10;84.50
10889;DHT22;5497;51.388;6.780;2022-08-21T12:50:55;28.20;84.60
10889;DHT22;5497;51.388;6.780;2022-08-21T12:53:30;28.10;83.80
10889;DHT22;5497;51.388;6.780;2022-08-21T12:56:07;28.00;84.30
10889;DHT22;5497;51.388;6.780;2022-08-21T12:58:44;27.80;84.60
10889;DHT22;5497;51.388;6.780;2022-08-21T13:01:14;27.70;83.80
10889;DHT22;5497;51.388;6.780;2022-08-21T13:04:01;27.50;84.40
10889;DHT22;5497;51.388;6.780;2022-08-21T13:06:41;27.40;84.20
10889;DHT22;5497;51.388;6.780;2022-08-21T13:09:12;27.40;84.40
10889;DHT22;5497;51.388;6.780;2022-08-21T13:11:47;27.30;83.50
10889;DHT22;5497;51.388;6.780;2022-08-21T13:14:21;27.30;82.10
10889;DHT22;5497;51.388;6.780;2022-08-21T13:16:56;27.40;83.20
10889;DHT22;5497;51.388;6.780;2022-08-21T13:19:32;27.50;83.10
10889;DHT22;5497;51.388;6.780;2022-08-21T13:22:03;27.70;82.90
10889;DHT22;5497;51.388;6.780;2022-08-21T13:24:34;27.70;83.30
10889;DHT22;5497;51.388;6.780;2022-08-21T13:27:27;27.80;82.60
10889;DHT22;5497;51.388;6.780;2022-08-21T13:30:09;27.90;82.50
10889;DHT22;5497;51.388;6.780;2022-08-21T13:32:49;28.30;81.60
10889;DHT22;5497;51.388;6.780;2022-08-21T13:35:21;28.40;82.10
10889;DHT22;5497;51.388;6.780;2022-08-21T13:38:00;28.50;81.80
10889;DHT22;5497;51.388;6.780;2022-08-21T13:40:30;28.60;80.40
10889;DHT22;5497;51.388;6.780;2022-08-21T13:43:09;28.50;80.30
10889;DHT22;5497;51.388;6.780;2022-08-21T13:45:42;28.50;79.50
10889;DHT22;5497;51.388;6.780;2022-08-21T13:48:16;28.40;79.10
10889;DHT22;5497;51.388;6.780;2022-08-21T13:50:53;28.50;79.10
10889;DHT22;5497;51.388;6.780;2022-08-21T13:53:27;28.70;78.80
10889;DHT22;5497;51.388;6.780;2022-08-21T13:58:47;28.80;76.50
10889;DHT22;5497;51.388;6.780;2022-08-21T14:01:23;28.60;76.50
10889;DHT22;5497;51.388;6.780;2022-08-21T14:03:52;28.50;77.40
10889;DHT22;5497;51.388;6.780;2022-08-21T14:06:26;28.40;78.40
10889;DHT22;5497;51.388;6.780;2022-08-21T14:09:03;28.40;77.20
10889;DHT22;5497;51.388;6.780;2022-08-21T14:11:43;28.30;77.70
10889;DHT22;5497;51.388;6.780;2022-08-21T14:14:16;28.30;77.60
10889;DHT22;5497;51.388;6.780;2022-08-21T14:16:55;28.30;77.50
10889;DHT22;5497;51.388;6.780;2022-08-21T14:19:23;28.30;77.60
10889;DHT22;5497;51.388;6.780;2022-08-21T14:21:51;28.60;77.80
10889;DHT22;5497;51.388;6.780;2022-08-21T14:24:26;28.60;78.40
10889;DHT22;5497;51.388;6.780;2022-08-21T14:26:55;28.90;77.90
10889;DHT22;5497;51.388;6.780;2022-08-21T14:29:24;29.20;75.60
10889;DHT22;5497;51.388;6.780;2022-08-21T14:31:53;29.90;73.70
10889;DHT22;5497;51.388;6.780;2022-08-21T14:34:21;30.00;74.30
10889;DHT22;5497;51.388;6.780;2022-08-21T14:36:49;31.40;74.60
10889;DHT22;5497;51.388;6.780;2022-08-21T14:39:16;30.60;73.90
10889;DHT22;5497;51.388;6.780;2022-08-21T14:41:44;30.80;73.20
10889;DHT22;5497;51.388;6.780;2022-08-21T14:44:14;31.00;71.90
10889;DHT22;5497;51.388;6.780;2022-08-21T14:46:42;31.20;71.60
10889;DHT22;5497;51.388;6.780;2022-08-21T14:49:09;31.30;69.70
10889;DHT22;5497;51.388;6.780;2022-08-21T14:51:36;31.20;70.80
10889;DHT22;5497;51.388;6.780;2022-08-21T14:54:04;31.20;71.50
10889;DHT22;5497;51.388;6.780;2022-08-21T14:56:31;31.20;71.60
10889;DHT22;5497;51.388;6.780;2022-08-21T14:59:02;31.10;71.50
10889;DHT22;5497;51.388;6.780;2022-08-21T15:01:29;31.00;71.20
10889;DHT22;5497;51.388;6.780;2022-08-21T15:04:00;30.60;69.40
10889;DHT22;5497;51.388;6.780;2022-08-21T15:06:27;30.20;70.10
10889;DHT22;5497;51.388;6.780;2022-08-21T15:08:54;29.90;70.70
10889;DHT22;5497;51.388;6.780;2022-08-21T15:11:21;29.60;71.80
10889;DHT22;5497;51.388;6.780;2022-08-21T15:13:56;29.20;71.20
10889;DHT22;5497;51.388;6.780;2022-08-21T15:16:24;28.90;72.80
10889;DHT22;5497;51.388;6.780;2022-08-21T15:18:51;28.60;74.20
10889;DHT22;5497;51.388;6.780;2022-08-21T15:21:19;28.30;75.10
10889;DHT22;5497;51.388;6.780;2022-08-21T15:23:46;28.20;74.90
10889;DHT22;5497;51.388;6.780;2022-08-21T15:26:13;28.20;75.50
10889;DHT22;5497;51.388;6.780;2022-08-21T15:28:41;28.20;75.90
10889;DHT22;5497;51.388;6.780;2022-08-21T15:31:09;28.30;76.70
10889;DHT22;5497;51.388;6.780;2022-08-21T15:33:36;28.40;75.50
10889;DHT22;5497;51.388;6.780;2022-08-21T15:36:04;28.30;76.40
10889;DHT22;5497;51.388;6.780;2022-08-21T15:38:32;28.30;76.50
10889;DHT22;5497;51.388;6.780;2022-08-21T15:41:01;28.30;76.70
10889;DHT22;5497;51.388;6.780;2022-08-21T15:43:29;28.30;75.70
10889;DHT22;5497;51.388;6.780;2022-08-21T15:45:57;28.20;76.10
10889;DHT22;5497;51.388;6.780;2022-08-21T15:48:25;28.00;76.20
10889;DHT22;5497;51.388;6.780;2022-08-21T15:50:52;27.80;76.20
10889;DHT22;5497;51.388;6.780;2022-08-21T15:53:19;27.50;75.70
10889;DHT22;5497;51.388;6.780;2022-08-21T15:55:47;27.40;76.50
10889;DHT22;5497;51.388;6.780;2022-08-21T15:58:14;27.20;77.00
10889;DHT22;5497;51.388;6.780;2022-08-21T16:00:42;27.00;77.30
10889;DHT22;5497;51.388;6.780;2022-08-21T16:03:10;26.90;77.60
10889;DHT22;5497;51.388;6.780;2022-08-21T16:05:39;26.80;77.90
10889;DHT22;5497;51.388;6.780;2022-08-21T16:08:06;26.80;78.30